createdAt,value
2023-04-05T00:00:32.726Z,9.57
2023-04-05T00:03:00.394Z,8.82
2023-04-05T00:05:32.016Z,9.93
2023-04-05T00:08:00.883Z,11.05
2023-04-05T00:10:28.714Z,15.90
2023-04-05T00:12:56.076Z,10.32
2023-04-05T00:15:23.347Z,13.52
2023-04-05T00:17:50.860Z,11.80
2023-04-05T00:20:17.950Z,11.00
2023-04-05T00:22:45.037Z,11.88
2023-04-05T00:25:12.767Z,10.88
2023-04-05T00:27:43.470Z,14.60
2023-04-05T00:30:21.328Z,10.75
2023-04-05T00:32:50.242Z,11.07
2023-04-05T00:35:17.915Z,9.30
2023-04-05T00:37:46.499Z,10.27
2023-04-05T00:40:14.342Z,13.68
2023-04-05T00:42:41.359Z,9.68
2023-04-05T00:45:09.166Z,10.93
2023-04-05T00:47:37.167Z,11.70
2023-04-05T00:50:04.269Z,10.20
2023-04-05T00:52:31.438Z,10.13
2023-04-05T00:54:58.898Z,12.43
2023-04-05T00:57:26.707Z,10.55
2023-04-05T00:59:53.866Z,9.82
2023-04-05T01:02:32.074Z,9.77
2023-04-05T01:05:03.268Z,10.95
2023-04-05T01:07:42.525Z,11.23
2023-04-05T01:10:13.665Z,10.60
2023-04-05T01:12:41.533Z,12.05
2023-04-05T01:15:09.523Z,9.20
2023-04-05T01:17:39.507Z,12.25
2023-04-05T01:20:18.449Z,10.27
2023-04-05T01:23:25.275Z,9.15
2023-04-05T01:26:10.318Z,9.82
2023-04-05T01:29:09.997Z,10.50
2023-04-05T01:31:47.306Z,12.20
2023-04-05T01:34:26.193Z,8.48
2023-04-05T01:37:04.177Z,10.40
2023-04-05T01:39:32.296Z,11.27
2023-04-05T01:42:01.731Z,11.35
2023-04-05T01:44:29.765Z,11.02
2023-04-05T01:46:57.480Z,11.10
2023-04-05T01:49:25.708Z,10.50
2023-04-05T01:51:53.066Z,10.38
2023-04-05T01:54:20.120Z,9.90
2023-04-05T01:56:47.564Z,9.07
2023-04-05T01:59:20.720Z,8.40
2023-04-05T02:01:47.996Z,9.88
2023-04-05T02:04:15.236Z,9.60
2023-04-05T02:06:42.865Z,9.63
2023-04-05T02:09:09.773Z,9.10
2023-04-05T02:11:36.833Z,10.20
2023-04-05T02:14:04.837Z,9.55
2023-04-05T02:16:34.444Z,10.23
2023-04-05T02:19:01.746Z,7.60
2023-04-05T02:21:29.306Z,9.20
2023-04-05T02:23:56.608Z,8.18
2023-04-05T02:26:24.768Z,9.40
2023-04-05T02:28:52.481Z,9.18
2023-04-05T02:31:20.108Z,8.57
2023-04-05T02:33:49.249Z,7.50
2023-04-05T02:36:16.417Z,10.50
2023-04-05T02:38:43.938Z,8.30
2023-04-05T02:41:30.887Z,10.38
2023-04-05T02:43:57.929Z,7.03
2023-04-05T02:46:24.932Z,9.80
2023-04-05T02:48:52.429Z,9.73
2023-04-05T02:51:19.444Z,9.10
2023-04-05T02:53:46.674Z,9.63
2023-04-05T02:56:14.519Z,11.38
2023-04-05T02:58:41.970Z,10.98
2023-04-05T03:01:09.106Z,12.05
2023-04-05T03:03:36.301Z,8.60
2023-04-05T03:06:12.046Z,8.63
2023-04-05T03:08:44.426Z,14.30
2023-04-05T03:11:12.040Z,7.82
2023-04-05T03:13:39.139Z,9.38
2023-04-05T03:16:06.485Z,11.18
2023-04-05T03:18:33.568Z,10.70
2023-04-05T03:21:00.583Z,8.57
2023-04-05T03:23:30.690Z,8.73
2023-04-05T03:25:58.467Z,11.35
2023-04-05T03:28:26.326Z,8.10
2023-04-05T03:30:53.534Z,10.90
2023-04-05T03:33:21.377Z,10.65
2023-04-05T03:35:49.619Z,9.95
2023-04-05T03:38:17.874Z,9.75
2023-04-05T03:40:45.634Z,10.23
2023-04-05T03:43:14.067Z,11.27
2023-04-05T03:45:41.768Z,7.87
2023-04-05T03:48:10.423Z,8.60
2023-04-05T03:50:37.832Z,7.72
2023-04-05T03:53:05.003Z,10.75
2023-04-05T03:55:32.455Z,11.12
2023-04-05T03:57:59.445Z,9.30
2023-04-05T04:00:26.502Z,10.07
2023-04-05T04:02:53.707Z,9.43
2023-04-05T04:05:22.079Z,9.75
2023-04-05T04:07:49.169Z,8.00
2023-04-05T04:10:20.050Z,10.55
2023-04-05T04:12:47.136Z,9.13
2023-04-05T04:15:14.181Z,12.00
2023-04-05T04:17:41.428Z,9.82
2023-04-05T04:20:11.434Z,9.57
2023-04-05T04:22:40.688Z,10.18
2023-04-05T04:25:10.921Z,10.13
2023-04-05T04:27:43.101Z,10.93
2023-04-05T04:30:12.940Z,11.45
2023-04-05T04:32:55.669Z,13.32
2023-04-05T04:35:29.387Z,11.12
2023-04-05T04:38:04.922Z,9.02
2023-04-05T04:40:39.817Z,9.30
2023-04-05T04:43:14.600Z,12.45
2023-04-05T04:45:42.322Z,12.32
2023-04-05T04:48:10.211Z,12.00
2023-04-05T04:50:37.883Z,11.18
2023-04-05T04:53:04.918Z,12.07
2023-04-05T04:55:33.752Z,13.23
2023-04-05T04:58:00.832Z,10.35
2023-04-05T05:00:27.914Z,11.12
2023-04-05T05:02:56.416Z,11.15
2023-04-05T05:05:23.695Z,12.13
2023-04-05T05:07:50.936Z,11.25
2023-04-05T05:10:19.043Z,12.68
2023-04-05T05:12:46.242Z,10.90
2023-04-05T05:15:13.278Z,13.88
2023-04-05T05:17:40.656Z,8.85
2023-04-05T05:20:11.462Z,10.25
2023-04-05T05:22:39.636Z,7.30
2023-04-05T05:25:09.041Z,12.80
2023-04-05T05:27:36.602Z,10.38
2023-04-05T05:30:04.331Z,10.98
2023-04-05T05:32:31.582Z,12.20
2023-04-05T05:34:58.676Z,9.82
2023-04-05T05:37:33.700Z,10.85
2023-04-05T05:40:00.972Z,9.38
2023-04-05T05:42:28.587Z,9.48
2023-04-05T05:44:56.216Z,8.98
2023-04-05T05:47:23.376Z,9.02
2023-04-05T05:49:50.704Z,9.73
2023-04-05T05:52:17.678Z,10.20
2023-04-05T05:54:44.803Z,10.90
2023-04-05T05:57:11.922Z,8.35
2023-04-05T05:59:39.114Z,8.80
2023-04-05T06:02:06.106Z,8.73
2023-04-05T06:04:34.578Z,8.05
2023-04-05T06:07:01.989Z,9.85
2023-04-05T06:09:29.488Z,7.55
2023-04-05T06:11:57.397Z,7.37
2023-04-05T06:14:25.436Z,7.45
2023-04-05T06:16:52.870Z,8.85
2023-04-05T06:19:19.887Z,8.43
2023-04-05T06:21:47.166Z,8.30
2023-04-05T06:24:14.550Z,13.80
2023-04-05T06:26:41.654Z,8.23
2023-04-05T06:29:08.692Z,8.50
2023-04-05T06:31:36.979Z,9.15
2023-04-05T06:34:04.179Z,8.52
2023-04-05T06:36:32.450Z,9.35
2023-04-05T06:38:59.751Z,9.15
2023-04-05T06:41:28.032Z,10.95
2023-04-05T06:43:56.406Z,6.60
2023-04-05T06:46:24.565Z,10.52
2023-04-05T06:48:53.105Z,10.18
2023-04-05T06:51:20.538Z,9.18
2023-04-05T06:53:47.564Z,14.85
2023-04-05T06:56:16.651Z,12.00
2023-04-05T06:58:44.720Z,10.25
2023-04-05T07:01:12.428Z,8.18
2023-04-05T07:03:39.717Z,10.10
2023-04-05T07:06:08.006Z,11.82
2023-04-05T07:08:35.175Z,13.52
2023-04-05T07:11:02.355Z,10.88
2023-04-05T07:13:30.556Z,9.05
2023-04-05T07:16:02.705Z,11.12
2023-04-05T07:18:30.427Z,11.12
2023-04-05T07:21:06.015Z,12.50
2023-04-05T07:23:33.060Z,11.55
2023-04-05T07:26:05.431Z,13.45
2023-04-05T07:28:34.627Z,9.88
2023-04-05T07:31:06.140Z,14.25
2023-04-05T07:33:34.217Z,8.55
2023-04-05T07:36:01.378Z,11.93
2023-04-05T07:38:30.194Z,11.55
2023-04-05T07:40:57.271Z,10.50
2023-04-05T07:43:26.081Z,8.60
2023-04-05T07:45:54.181Z,8.07
2023-04-05T07:48:21.381Z,8.95
2023-04-05T07:50:49.029Z,9.50
2023-04-05T07:53:16.501Z,10.98
2023-04-05T07:55:43.752Z,9.65
2023-04-05T07:58:13.330Z,9.40
2023-04-05T08:00:40.605Z,11.57
2023-04-05T08:03:07.983Z,8.25
2023-04-05T08:05:35.168Z,12.88
2023-04-05T08:08:02.451Z,10.98
2023-04-05T08:10:30.451Z,8.55
2023-04-05T08:12:58.678Z,8.68
2023-04-05T08:15:26.256Z,10.27
2023-04-05T08:17:56.452Z,8.25
2023-04-05T08:20:28.709Z,9.40
2023-04-05T08:23:00.734Z,13.02
2023-04-05T08:25:30.662Z,10.07
2023-04-05T08:28:06.214Z,8.77
2023-04-05T08:30:35.132Z,10.52
2023-04-05T08:33:09.487Z,7.87
2023-04-05T08:35:40.030Z,11.35
2023-04-05T08:38:16.519Z,11.60
2023-04-05T08:40:49.379Z,9.30
2023-04-05T08:43:28.691Z,9.85
2023-04-05T08:46:04.464Z,10.88
2023-04-05T08:48:39.371Z,13.85
2023-04-05T08:51:12.903Z,9.18
2023-04-05T08:53:42.152Z,9.32
2023-04-05T08:56:15.508Z,10.30
2023-04-05T08:58:59.002Z,9.70
2023-04-05T09:01:31.057Z,9.60
2023-04-05T09:04:12.840Z,14.40
2023-04-05T09:06:41.779Z,9.25
2023-04-05T09:09:11.215Z,8.23
2023-04-05T09:11:46.828Z,8.95
2023-04-05T09:14:19.400Z,8.40
2023-04-05T09:16:48.101Z,12.75
2023-04-05T09:19:16.792Z,11.85
2023-04-05T09:22:07.581Z,9.43
2023-04-05T09:24:37.728Z,13.27
2023-04-05T09:27:10.066Z,9.90
2023-04-05T09:29:40.229Z,14.00
2023-04-05T09:32:12.277Z,9.05
2023-04-05T09:34:41.347Z,10.20
2023-04-05T09:37:16.737Z,9.38
2023-04-05T09:39:44.655Z,10.80
2023-04-05T09:42:16.763Z,8.80
2023-04-05T09:45:05.468Z,12.15
2023-04-05T09:47:36.851Z,14.20
2023-04-05T09:50:24.364Z,9.27
2023-04-05T09:52:52.875Z,11.32
2023-04-05T09:55:31.584Z,8.35
2023-04-05T09:58:00.945Z,7.85
2023-04-05T10:00:31.443Z,7.93
2023-04-05T10:03:00.872Z,11.80
2023-04-05T10:05:29.573Z,6.45
2023-04-05T10:07:57.390Z,9.07
2023-04-05T10:10:26.105Z,8.20
2023-04-05T10:12:54.329Z,8.32
2023-04-05T10:15:23.756Z,7.70
2023-04-05T10:18:03.899Z,5.75
2023-04-05T10:20:40.177Z,11.57
2023-04-05T10:23:33.312Z,5.32
2023-04-05T10:27:05.912Z,5.37
2023-04-05T10:29:50.988Z,8.68
2023-04-05T10:32:40.960Z,8.57
2023-04-05T10:35:11.172Z,8.13
2023-04-05T10:37:57.058Z,7.00
2023-04-05T10:40:30.786Z,7.72
2023-04-05T10:42:58.027Z,5.78
2023-04-05T10:45:27.566Z,6.60
2023-04-05T10:48:14.880Z,7.47
2023-04-05T10:50:43.099Z,5.60
2023-04-05T10:53:11.733Z,7.55
2023-04-05T10:55:39.636Z,8.00
2023-04-05T10:58:07.214Z,6.00
2023-04-05T11:00:34.782Z,6.95
2023-04-05T11:03:01.979Z,8.15
2023-04-05T11:05:37.972Z,7.60
2023-04-05T11:08:09.540Z,7.00
2023-04-05T11:10:38.802Z,7.80
2023-04-05T11:13:08.188Z,6.60
2023-04-05T11:15:35.978Z,13.77
2023-04-05T11:18:08.867Z,10.10
2023-04-05T11:20:43.684Z,6.57
2023-04-05T11:23:14.880Z,7.85
2023-04-05T11:25:49.766Z,7.95
2023-04-05T11:28:32.223Z,7.47
2023-04-05T11:31:17.036Z,7.75
2023-04-05T11:34:14.826Z,6.80
2023-04-05T11:36:48.671Z,6.05
2023-04-05T11:39:18.866Z,5.75
2023-04-05T11:41:53.951Z,5.65
2023-04-05T11:44:23.255Z,9.73
2023-04-05T11:46:51.584Z,5.80
2023-04-05T11:49:22.814Z,5.35
2023-04-05T11:51:52.475Z,8.18
2023-04-05T11:54:40.179Z,7.07
2023-04-05T11:57:25.064Z,6.97
2023-04-05T11:59:53.788Z,5.25
2023-04-05T12:02:22.548Z,7.03
2023-04-05T12:05:02.321Z,6.40
2023-04-05T12:07:32.855Z,8.30
2023-04-05T12:10:18.237Z,5.80
2023-04-05T12:12:47.932Z,4.72
2023-04-05T12:15:18.107Z,7.60
2023-04-05T12:17:51.668Z,7.32
2023-04-05T12:20:25.046Z,6.97
2023-04-05T12:22:57.781Z,5.75
2023-04-05T12:25:25.373Z,6.95
2023-04-05T12:27:52.579Z,5.18
2023-04-05T12:30:24.223Z,7.60
2023-04-05T12:32:53.284Z,5.82
2023-04-05T12:35:24.718Z,6.97
2023-04-05T12:37:52.542Z,6.47
2023-04-05T12:40:23.618Z,9.50
2023-04-05T12:42:51.523Z,7.90
2023-04-05T12:45:19.929Z,5.50
2023-04-05T12:48:00.629Z,6.10
2023-04-05T12:50:32.027Z,6.53
2023-04-05T12:53:01.167Z,7.03
2023-04-05T12:55:30.146Z,7.75
2023-04-05T12:58:02.461Z,9.35
2023-04-05T13:00:30.426Z,8.63
2023-04-05T13:02:59.162Z,9.40
2023-04-05T13:05:29.271Z,6.45
2023-04-05T13:07:56.746Z,7.53
2023-04-05T13:10:26.853Z,7.57
2023-04-05T13:12:53.924Z,8.10
2023-04-05T13:15:21.509Z,6.15
2023-04-05T13:17:50.406Z,15.40
2023-04-05T13:20:18.374Z,10.73
2023-04-05T13:22:46.530Z,10.98
2023-04-05T13:25:15.164Z,7.60
2023-04-05T13:27:42.543Z,8.25
2023-04-05T13:30:12.753Z,5.70
2023-04-05T13:32:40.385Z,7.65
2023-04-05T13:35:10.355Z,9.75
2023-04-05T13:37:38.836Z,6.55
2023-04-05T13:40:08.711Z,6.60
2023-04-05T13:45:05.872Z,9.68
2023-04-05T13:47:35.205Z,6.47
2023-04-05T13:50:03.231Z,7.22
2023-04-05T13:52:32.514Z,8.07
2023-04-05T13:55:02.874Z,10.02
2023-04-05T13:57:31.714Z,5.55
2023-04-05T14:00:01.162Z,7.95
2023-04-05T14:02:29.045Z,8.55
2023-04-05T14:04:58.786Z,7.00
2023-04-05T14:07:26.207Z,12.27
2023-04-05T14:09:53.457Z,7.72
2023-04-05T14:12:27.087Z,9.10
2023-04-05T14:14:54.334Z,10.82
2023-04-05T14:17:21.640Z,8.15
2023-04-05T14:19:49.090Z,9.63
2023-04-05T14:22:16.712Z,8.15
2023-04-05T14:24:44.136Z,5.93
2023-04-05T14:27:12.885Z,6.03
2023-04-05T14:29:39.997Z,9.38
2023-04-05T14:32:07.218Z,11.45
2023-04-05T14:34:34.266Z,5.80
2023-04-05T14:37:05.481Z,7.68
2023-04-05T14:39:32.619Z,7.20
2023-04-05T14:42:00.275Z,5.47
2023-04-05T14:44:28.194Z,7.40
2023-04-05T14:46:55.263Z,6.57
2023-04-05T14:49:24.745Z,7.10
2023-04-05T14:51:51.812Z,9.07
2023-04-05T14:54:18.883Z,5.85
2023-04-05T14:56:47.898Z,10.93
2023-04-05T14:59:14.961Z,8.83
2023-04-05T15:01:44.624Z,11.55
2023-04-05T15:04:12.254Z,10.52
2023-04-05T15:06:39.304Z,12.88
2023-04-05T15:09:06.441Z,8.20
2023-04-05T15:11:35.814Z,7.47
2023-04-05T15:14:03.049Z,7.22
2023-04-05T15:16:30.761Z,7.82
2023-04-05T15:18:59.440Z,7.35
2023-04-05T15:21:26.527Z,8.82
2023-04-05T15:23:53.577Z,8.18
2023-04-05T15:26:21.332Z,9.32
2023-04-05T15:28:48.407Z,12.82
2023-04-05T15:31:15.579Z,15.07
2023-04-05T15:33:42.742Z,10.52
2023-04-05T15:36:10.048Z,11.35
2023-04-05T15:38:37.108Z,11.68
2023-04-05T15:41:04.309Z,8.57
2023-04-05T15:43:32.793Z,11.45
2023-04-05T15:45:59.995Z,9.13
2023-04-05T15:48:29.126Z,7.43
2023-04-05T15:50:56.306Z,7.50
2023-04-05T15:53:23.492Z,10.13
2023-04-05T15:55:50.601Z,8.25
2023-04-05T15:58:17.781Z,9.50
2023-04-05T16:00:45.002Z,7.95
2023-04-05T16:03:12.235Z,8.85
2023-04-05T16:05:39.449Z,8.18
2023-04-05T16:08:06.889Z,13.13
2023-04-05T16:10:34.077Z,7.12
2023-04-05T16:13:01.316Z,9.77
2023-04-05T16:15:28.802Z,7.97
2023-04-05T16:17:56.429Z,9.68
2023-04-05T16:20:23.957Z,10.25
2023-04-05T16:22:52.146Z,10.55
2023-04-05T16:25:19.667Z,12.90
2023-04-05T16:27:46.703Z,10.35
2023-04-05T16:30:14.295Z,9.48
2023-04-05T16:32:41.389Z,11.98
2023-04-05T16:35:08.914Z,9.32
2023-04-05T16:37:36.542Z,10.30
2023-04-05T16:40:04.707Z,11.45
2023-04-05T16:42:31.839Z,10.30
2023-04-05T16:44:58.956Z,14.85
2023-04-05T16:47:26.526Z,13.93
2023-04-05T16:49:53.743Z,10.85
2023-04-05T16:52:21.051Z,10.20
2023-04-05T16:54:48.227Z,14.20
2023-04-05T16:57:16.712Z,8.27
2023-04-05T16:59:43.833Z,10.35
2023-04-05T17:02:10.947Z,11.10
2023-04-05T17:04:38.457Z,16.17
2023-04-05T17:07:06.036Z,16.08
2023-04-05T17:09:33.519Z,16.45
2023-04-05T17:12:00.523Z,14.00
2023-04-05T17:14:27.666Z,16.08
2023-04-05T17:16:55.658Z,17.35
2023-04-05T17:19:23.081Z,19.58
2023-04-05T17:21:50.253Z,18.92
2023-04-05T17:24:19.930Z,16.98
2023-04-05T17:26:47.118Z,17.85
2023-04-05T17:29:14.267Z,17.98
2023-04-05T17:31:42.265Z,18.58
2023-04-05T17:34:13.414Z,21.52
2023-04-05T17:36:40.860Z,20.33
2023-04-05T17:39:07.906Z,15.98
2023-04-05T17:41:34.966Z,15.38
2023-04-05T17:44:01.995Z,13.65
2023-04-05T17:46:39.741Z,20.75
2023-04-05T17:49:08.668Z,16.55
2023-04-05T17:51:35.859Z,12.60
2023-04-05T17:54:03.026Z,13.13
2023-04-05T17:56:30.294Z,14.45
2023-04-05T17:58:57.251Z,13.40
2023-04-05T18:01:24.240Z,13.98
2023-04-05T18:03:51.600Z,10.10
2023-04-05T18:06:20.590Z,11.57
2023-04-05T18:08:47.631Z,10.93
2023-04-05T18:11:14.697Z,11.50
2023-04-05T18:13:41.763Z,13.98
2023-04-05T18:16:08.864Z,8.50
2023-04-05T18:18:36.513Z,11.63
2023-04-05T18:21:04.813Z,12.68
2023-04-05T18:23:33.897Z,11.88
2023-04-05T18:26:07.331Z,13.95
2023-04-05T18:28:34.312Z,12.23
2023-04-05T18:31:01.394Z,15.00
2023-04-05T18:33:28.332Z,12.13
2023-04-05T18:35:55.393Z,14.98
2023-04-05T18:38:22.375Z,13.93
2023-04-05T18:40:49.416Z,12.93
2023-04-05T18:43:16.671Z,11.60
2023-04-05T18:45:43.739Z,12.85
2023-04-05T18:48:11.693Z,10.18
2023-04-05T18:50:38.804Z,10.30
2023-04-05T18:53:07.128Z,15.48
2023-04-05T18:55:34.182Z,9.80
2023-04-05T18:58:01.510Z,10.10
2023-04-05T19:00:28.491Z,12.25
2023-04-05T19:02:55.979Z,14.02
2023-04-05T19:05:23.055Z,12.00
2023-04-05T19:07:50.047Z,20.80
2023-04-05T19:10:19.596Z,25.20
2023-04-05T19:12:47.067Z,31.45
2023-04-05T19:15:14.116Z,23.35
2023-04-05T19:17:41.220Z,23.87
2023-04-05T19:20:08.747Z,15.73
2023-04-05T19:22:35.984Z,15.20
2023-04-05T19:25:04.347Z,14.82
2023-04-05T19:27:33.117Z,12.90
2023-04-05T19:30:00.349Z,11.00
2023-04-05T19:32:27.454Z,8.38
2023-04-05T19:34:54.658Z,12.05
2023-04-05T19:37:21.705Z,9.10
2023-04-05T19:39:48.981Z,8.90
2023-04-05T19:42:16.142Z,9.50
2023-04-05T19:44:43.091Z,12.30
2023-04-05T19:47:11.367Z,13.10
2023-04-05T19:49:42.691Z,12.35
2023-04-05T19:52:13.234Z,11.77
2023-04-05T19:54:42.973Z,10.00
2023-04-05T19:57:10.266Z,8.32
2023-04-05T19:59:38.230Z,8.63
2023-04-05T20:02:19.690Z,7.82
2023-04-05T20:04:48.213Z,8.43
2023-04-05T20:07:15.711Z,8.85
2023-04-05T20:09:44.469Z,7.35
2023-04-05T20:12:13.811Z,9.07
2023-04-05T20:14:44.211Z,9.27
2023-04-05T20:17:13.367Z,9.63
2023-04-05T20:19:42.674Z,10.52
2023-04-05T20:22:09.882Z,9.93
2023-04-05T20:24:39.365Z,6.82
2023-04-05T20:27:06.685Z,8.98
2023-04-05T20:29:33.908Z,7.70
2023-04-05T20:32:02.100Z,8.90
2023-04-05T20:34:31.821Z,9.02
2023-04-05T20:37:03.141Z,7.60
2023-04-05T20:39:31.620Z,9.18
2023-04-05T20:41:58.733Z,8.38
2023-04-05T20:44:26.216Z,8.50
2023-04-05T20:46:55.016Z,7.80
2023-04-05T20:49:22.690Z,8.15
2023-04-05T20:51:55.087Z,8.15
2023-04-05T20:54:22.744Z,6.78
2023-04-05T20:56:51.850Z,8.30
2023-04-05T20:59:18.876Z,11.07
2023-04-05T21:01:47.777Z,8.77
2023-04-05T21:04:14.971Z,7.90
2023-04-05T21:06:42.537Z,9.63
2023-04-05T21:09:10.101Z,7.15
2023-04-05T21:11:37.624Z,8.35
2023-04-05T21:14:04.762Z,8.05
2023-04-05T21:16:32.018Z,8.27
2023-04-05T21:18:59.017Z,7.57
2023-04-05T21:21:26.508Z,7.85
2023-04-05T21:23:53.541Z,6.57
2023-04-05T21:26:21.739Z,7.35
2023-04-05T21:28:48.796Z,7.43
2023-04-05T21:31:15.873Z,5.93
2023-04-05T21:33:44.154Z,8.10
2023-04-05T21:36:11.227Z,10.02
2023-04-05T21:38:38.256Z,5.03
2023-04-05T21:41:05.364Z,6.10
2023-04-05T21:43:32.357Z,5.30
2023-04-05T21:45:59.273Z,6.75
2023-04-05T21:48:28.290Z,9.45
2023-04-05T21:50:56.120Z,8.40
2023-04-05T21:53:25.681Z,6.65
2023-04-05T21:55:53.129Z,5.85
2023-04-05T21:58:20.166Z,5.68
2023-04-05T22:00:47.647Z,7.32
2023-04-05T22:03:14.841Z,6.28
2023-04-05T22:05:42.912Z,6.93
2023-04-05T22:08:11.155Z,7.78
2023-04-05T22:10:38.629Z,7.07
2023-04-05T22:13:05.618Z,6.97
2023-04-05T22:15:32.557Z,4.15
2023-04-05T22:17:59.580Z,6.15
2023-04-05T22:20:26.830Z,6.82
2023-04-05T22:22:53.997Z,6.80
2023-04-05T22:25:21.147Z,8.48
2023-04-05T22:27:48.108Z,6.95
2023-04-05T22:30:16.151Z,8.48
2023-04-05T22:32:43.308Z,9.15
2023-04-05T22:35:10.910Z,9.88
2023-04-05T22:37:38.585Z,8.13
2023-04-05T22:40:06.404Z,7.07
2023-04-05T22:42:33.375Z,7.00
2023-04-05T22:45:00.499Z,6.07
2023-04-05T22:47:27.567Z,9.57
2023-04-05T22:49:54.623Z,6.50
2023-04-05T22:52:21.909Z,7.68
2023-04-05T22:54:48.969Z,7.53
2023-04-05T22:57:16.210Z,6.45
2023-04-05T22:59:43.541Z,8.85
2023-04-05T23:02:12.664Z,7.55
2023-04-05T23:04:39.874Z,7.25
2023-04-05T23:07:07.031Z,7.05
2023-04-05T23:09:34.180Z,7.93
2023-04-05T23:12:01.351Z,8.02
2023-04-05T23:14:28.321Z,8.70
2023-04-05T23:16:55.322Z,9.05
2023-04-05T23:19:22.372Z,8.05
2023-04-05T23:21:49.333Z,9.35
2023-04-05T23:24:16.385Z,9.90
2023-04-05T23:26:43.347Z,9.43
2023-04-05T23:29:10.587Z,10.07
2023-04-05T23:31:37.720Z,8.63
2023-04-05T23:34:04.757Z,10.02
2023-04-05T23:36:32.720Z,7.55
2023-04-05T23:39:00.502Z,8.48
2023-04-05T23:41:27.791Z,8.00
2023-04-05T23:43:54.716Z,8.00
2023-04-05T23:46:22.389Z,8.70
2023-04-05T23:48:49.548Z,9.50
2023-04-05T23:51:16.575Z,8.50
2023-04-05T23:53:43.540Z,8.75
2023-04-05T23:56:10.552Z,9.50
2023-04-05T23:58:37.485Z,10.50
